Chelan Falls, WA

12:03 AM PDT en Octubre 24, 2014 (GMT -0700)
Grant County International | Change Station
CLOSE
Current Station
Aeropuerto
Location: Moses Lake,
Altura: 1184 ft
Estaciones meteorológicas cercanas

Alt 1184 ft 47.21 °N, 119.32 °W | Updated 11 minutes ago

Despejado
Despejado
45 ° F
Sensación térmica 41 ° F
N
7
Viento Variable Viento desde Sur

Hoy
Alta -- | Baja -- ° F
--% Posibilidad de precipitaciones
Ayer
Alta -- | Baja -- ° F
Precip. -- pul
7:32 AM 5:54 PM
Luna nueva, 0% visible
Presión 30.00 pul
Visibilidad 10.0 Millas
Nubes Despejado
Vientos helados 41 ° F
Punto de rocío 38 ° F
Humedad 76%
Precipitaciones 0.01 pul
Espesor de la nieve No disponible.
UV 0 de una escala de 12
Polen .40 de una escala de 12
Calidad del aire No disponible.
Flu Activity No disponible.
METAR KMWH 240652Z AUTO 19006KT 10SM CLR 07/03 A2999 RMK AO2 SLP159 T00720033 TSNO

More Conditions Fewer Conditions

Presión 30.00 pul
Visibilidad 10.0 Millas
Nubes Despejado
Vientos helados 41 ° F
Punto de rocío 38 ° F
Humedad 76%
Precipitaciones 0.01 pul
Espesor de la nieve No disponible.
UV 0 de una escala de 12
Polen .40 de una escala de 12
Calidad del aire No disponible.
Flu Activity No disponible.
METAR KMWH 240652Z AUTO 19006KT 10SM CLR 07/03 A2999 RMK AO2 SLP159 T00720033 TSNO

More Conditions Fewer Conditions

10-Day Weather Forecast

Almanac

Astronomía

Oct. 24, 2014 Salida Puesta
Hora real 7:32 AM PDT 5:54 PM PDT
Crepúsculo civil 7:00 AM PDT 6:26 PM PDT
Crepúsculo náutico 6:24 AM PDT 7:02 PM PDT
Crepúsculo astronómico 5:48 AM PDT 7:38 PM PDT
Luna 8:19 AM PDT 6:34 PM PDT
Horas de luz 11h 26m
Horas de luz
10h 22m
Tomorrow will be 3m 14s shorter.
Luna nueva, 0% of the Moon is Illuminated
Hoy
Luna nueva
Oct 30
Cuarto creciente
Nov 6
Luna llena
Nov 14
Cuarto menguante
Nov 22
Nueva

Community

WunderPhotos

Upload Photos

1,764,510 ¡fotos cargadas!

WunderBlogs® & News

Nearby

Grosos de nieve

Estación Profundido Altura
Pope Ridge 1 in 3540 ft
Trough 0 in 5300 ft
Grouse Camp 0 in 5380 ft
Blewett Pass 0 in 4270 ft
Stevens Pass 0 in 4070 ft

Actividad de terremotos

Ciudad Distance Mag. Tiempo y dato
No hay informes recientes de la actividad sísmica.
Magnitud mínima muestra es 2,5.

Temperaturas de aguas costeras

Lugar Temperatura
Sin partes meteorológicos de las estaciones

Estaciones meteorológicas cercanas